AirNav   TITAN Aviation Fuels
 
 598 users online  

31TA Houston Methodist The Woodlands Hospital Heliport
The Woodlands, Texas, USA

GOING TO THE WOODLANDS?


FAA INFORMATION EFFECTIVE 07 OCTOBER 2021

Location

FAA Identifier: 31TA
Lat/Long: 30-12-14.8600N 095-27-09.4800W
30-12.247667N 095-27.158000W
30.2041278,-95.4526333
(estimated)
Elevation: 128 ft. / 39.0 m (surveyed)
From city: 3 miles N of THE WOODLANDS, TX
Time zone: UTC -5 (UTC -6 during Standard Time)
Zip code: 77385

Heliport Operations

Heliport use: Private use. Permission required prior to landing
Activation date: 12/2015
Control tower: no
ARTCC: HOUSTON CENTER
FSS: MONTGOMERY COUNTY FLIGHT SERVICE STATION
Attendance: CONTINUOUS
Wind indicator: yes
Segmented circle: no
Lights: SS-SR

Heliport Communications

WX ASOS at CXO (9 nm N): 118.325 (936-760-4237)
WX ASOS at DWH (10 nm SW): PHONE 281-251-7853
WX ASOS at IAH (14 nm SE): PHONE 281-443-6397

Nearby radio navigation aids

VOR radial/distance  VOR name  Freq  Var
IAHr334/15.8HUMBLE VORTAC116.6005E
TNVr091/31.8NAVASOTA VOR/DME115.9008E

 
NDB name  Hdg/Dist  Freq  Var  ID
ALIBI170/13.728105ECX -.-. -..-
HUNTSVILLE161/33.030806EUTS ..- - ...

Heliport Services

Runway Information

Helipad H1

Dimensions: 45 x 45 ft. / 14 x 14 m
Surface: concrete
Runway edge lights: PERI
Traffic pattern: leftleft

Heliport Ownership and Management from official FAA records

Ownership: Privately-owned
OWNER CONTACT: KYLE ROTH
Owner: HOUSTON METHODIST HOSPITAL
6565 FANNIN STREET MGJB-002
HOUSTON, TX 77030
Phone 713-441-1325
Manager: KENT TRAMMEL
17201 INTERSTATE 45 SOUTH
CONROE, TX 77385
Phone 936-270-2000

Additional Remarks

FOR CD CTC HOUSTON ARTCC AT 281-230-5622.

Instrument Procedures

There are no published instrument procedures at 31TA.

Some nearby airports with instrument procedures:

KCXO - Conroe-North Houston Regional Airport (9 nm N)
KDWH - David Wayne Hooks Memorial Airport (10 nm SW)
KIAH - George Bush Intercontinental/Houston Airport (14 nm SE)
6R3 - Cleveland Municipal Airport (25 nm E)
KIWS - West Houston Airport (26 nm SW)
 
Loc | Ops | Rwys | IFR | FBO | Links
Com | Nav | Svcs | Stats | Notes
Aerial photo
No photo
 
Airport distance calculator
Flying to Houston Methodist The Woodlands Hospital Heliport? Find the distance to fly.

From to 31TA

Sunrise and sunset
Times for 28-Oct-2021
 Local
(UTC-5)
 Zulu
(UTC)
Morning civil twilight07:0912:09
Sunrise07:3412:34
Sunset18:3723:37
Evening civil twilight19:0200:02

Current date and time
Zulu (UTC)  28-Oct-2021 05:04:29
Local (UTC-5)  28-Oct-2021 00:04:29
 
METAR
KCXO 
9nm N 
280453Z AUTO 28007KT 10SM CLR 17/09 A2975 RMK AO2 SLP070 T01670094
KDWH 
10nm SW 
280453Z AUTO 25005KT 10SM CLR 17/10 A2976 RMK AO2 SLP075 T01670100
KIAH 
13nm S 
280453Z 28006KT 10SM CLR 19/09 A2975 RMK AO2 SLP074 T01890089
TAF
KCXO 
9nm N 
271722Z 2718/2818 29010KT P6SM SCT090 FM272000 28014G23KT P6SM FEW200 FM280300 28009KT P6SM SKC FM281400 29015G25KT P6SM SKC FM281700 31020G31KT P6SM SKC
KIAH 
13nm S 
280300Z 2803/2906 27006KT P6SM SKC FM281100 28012G23KT P6SM SKC FM281800 31019G30KT P6SM SKC
NOTAMs
Click for the latest NOTAMs
NOTAMs are issued by the DoD/FAA and will open in a separate window not controlled by AirNav.

 

 
 

Would you like to see your business listed on this page?

 If your business provides an interesting product or service to pilots, flight crews, aircraft, or users of the Houston Methodist The Woodlands Hospital Heliport, you should consider listing it here.  To start the listing process, click on the button below
 
Add a business
 

Other Pages about Houston Methodist The Woodlands Hospital Heliport

Update a link
 
Copyright © AirNav, LLC. All rights reserved. Privacy Policy  Contact